Meycauayan, Philippines
Current Conditions -  °F | °C
As of 5:00 PM on Friday 31 Oct 2014 (Local Time) from RPLL Reporting Station
Scattered Clouds Scattered Clouds  
Wind Chill: 86°   Ceiling: Unl
Heat Index: 95°   Visibility: 6mi
Dew Point: 75°   Wind: 6mph
Humidity: 70%   Direction: 130°SE
Pressure: 29.77"   Gusts: NA
Location:  14.73°N, 120.91°E
Report Text: RPLL 310900Z 13005KT 020V180 9999 FEW025 SCT100 30/24 Q1008 NOSIG RMK A2977
Loading
Personal Weather Stations






























Interactive Weather Map
Tropical Storm Tracking
New forecast layout! Learn more

10-Day Weather Forecast

Advertisements
Track Severe Weather on mobile